createdAt,value
2023-01-04T00:00:51.118Z,11.93
2023-01-04T00:03:18.864Z,12.22
2023-01-04T00:05:46.165Z,12.46
2023-01-04T00:08:13.375Z,12.02
2023-01-04T00:10:40.828Z,12.49
2023-01-04T00:13:07.974Z,12.02
2023-01-04T00:15:35.198Z,12.44
2023-01-04T00:18:02.792Z,12.37
2023-01-04T00:20:30.034Z,12.51
2023-01-04T00:22:58.021Z,12.64
2023-01-04T00:25:25.514Z,12.71
2023-01-04T00:27:52.796Z,12.67
2023-01-04T00:30:38.862Z,12.62
2023-01-04T00:33:06.305Z,12.44
2023-01-04T00:35:45.845Z,12.44
2023-01-04T00:38:13.762Z,12.47
2023-01-04T00:40:41.038Z,11.82
2023-01-04T00:43:08.206Z,12.01
2023-01-04T00:45:35.666Z,12.17
2023-01-04T00:48:02.862Z,12.22
2023-01-04T00:50:30.045Z,12.29
2023-01-04T00:52:57.504Z,12.22
2023-01-04T00:55:25.430Z,12.24
2023-01-04T00:57:52.626Z,12.33
2023-01-04T01:00:20.079Z,12.30
2023-01-04T01:02:47.325Z,12.10
2023-01-04T01:05:14.814Z,12.23
2023-01-04T01:07:42.360Z,12.35
2023-01-04T01:10:09.589Z,12.40
2023-01-04T01:12:36.780Z,12.31
2023-01-04T01:15:04.406Z,12.05
2023-01-04T01:17:31.647Z,12.04
2023-01-04T01:19:58.844Z,12.15
2023-01-04T01:22:26.334Z,11.74
2023-01-04T01:24:53.504Z,12.05
2023-01-04T01:27:20.740Z,11.94
2023-01-04T01:29:48.197Z,11.27
2023-01-04T01:32:15.413Z,11.35
2023-01-04T01:34:42.700Z,11.17
2023-01-04T01:37:10.194Z,11.17
2023-01-04T01:39:37.385Z,11.28
2023-01-04T01:42:04.566Z,11.11
2023-01-04T01:44:44.193Z,11.19
2023-01-04T01:47:18.180Z,11.12
2023-01-04T01:49:45.905Z,10.91
2023-01-04T01:52:22.011Z,11.15
2023-01-04T01:54:50.013Z,11.25
2023-01-04T01:57:18.514Z,10.95
2023-01-04T01:59:46.171Z,10.67
2023-01-04T02:02:13.708Z,11.26
2023-01-04T02:04:42.061Z,10.75
2023-01-04T02:07:09.509Z,10.85
2023-01-04T02:09:36.699Z,10.93
2023-01-04T02:12:03.997Z,10.85
2023-01-04T02:14:31.476Z,11.29
2023-01-04T02:17:09.432Z,11.36
2023-01-04T02:19:51.829Z,11.60
2023-01-04T02:22:37.392Z,11.63
2023-01-04T02:25:23.306Z,11.67
2023-01-04T02:28:02.019Z,11.60
2023-01-04T02:30:49.450Z,11.54
2023-01-04T02:33:28.227Z,11.31
2023-01-04T02:36:00.153Z,10.85
2023-01-04T02:38:47.989Z,10.87
2023-01-04T02:41:23.359Z,10.62
2023-01-04T02:44:10.821Z,10.68
2023-01-04T02:46:47.855Z,10.62
2023-01-04T02:49:34.010Z,10.39
2023-01-04T02:52:01.434Z,10.59
2023-01-04T02:54:32.326Z,10.76
2023-01-04T02:57:05.534Z,10.69
2023-01-04T02:59:52.427Z,10.54
2023-01-04T03:02:44.353Z,10.76
2023-01-04T03:05:34.104Z,10.65
2023-01-04T03:08:03.294Z,10.80
2023-01-04T03:10:34.357Z,10.91
2023-01-04T03:13:04.088Z,11.02
2023-01-04T03:15:31.669Z,10.72
2023-01-04T03:17:59.086Z,10.65
2023-01-04T03:20:27.743Z,10.88
2023-01-04T03:23:33.981Z,10.64
2023-01-04T03:26:24.440Z,10.52
2023-01-04T03:29:10.628Z,10.57
2023-01-04T03:31:57.311Z,10.43
2023-01-04T03:34:43.534Z,10.34
2023-01-04T03:37:11.009Z,10.44
2023-01-04T03:40:15.979Z,10.20
2023-01-04T03:43:04.209Z,10.18
2023-01-04T03:45:52.417Z,10.22
2023-01-04T03:48:31.599Z,10.44
2023-01-04T03:51:01.348Z,10.60
2023-01-04T03:53:28.534Z,10.81
2023-01-04T03:55:55.701Z,11.00
2023-01-04T03:58:23.170Z,10.93
2023-01-04T04:00:50.605Z,11.04
2023-01-04T04:03:18.138Z,11.12
2023-01-04T04:06:04.304Z,11.16
2023-01-04T04:08:31.749Z,11.08
2023-01-04T04:11:34.985Z,11.02
2023-01-04T04:14:02.511Z,10.86
2023-01-04T04:16:29.813Z,11.00
2023-01-04T04:18:57.130Z,10.94
2023-01-04T04:21:24.539Z,10.95
2023-01-04T04:23:51.712Z,11.17
2023-01-04T04:26:18.942Z,11.09
2023-01-04T04:28:46.426Z,11.25
2023-01-04T04:31:13.715Z,10.80
2023-01-04T04:33:41.006Z,10.71
2023-01-04T04:36:08.741Z,10.08
2023-01-04T04:38:35.960Z,10.46
2023-01-04T04:41:25.349Z,10.60
2023-01-04T04:43:53.044Z,10.59
2023-01-04T04:46:20.418Z,10.32
2023-01-04T04:48:47.641Z,10.41
2023-01-04T04:51:15.059Z,10.46
2023-01-04T04:53:42.285Z,10.67
2023-01-04T04:56:09.787Z,10.63
2023-01-04T04:58:37.338Z,10.62
2023-01-04T05:01:04.983Z,10.37
2023-01-04T05:03:32.358Z,10.48
2023-01-04T05:06:00.145Z,10.27
2023-01-04T05:08:27.343Z,9.68
2023-01-04T05:10:54.506Z,10.09
2023-01-04T05:13:21.994Z,10.05
2023-01-04T05:15:50.688Z,9.81
2023-01-04T05:18:18.617Z,9.99
2023-01-04T05:20:46.085Z,9.64
2023-01-04T05:23:14.070Z,9.87
2023-01-04T05:25:41.384Z,9.93
2023-01-04T05:28:09.263Z,10.09
2023-01-04T05:30:51.464Z,9.95
2023-01-04T05:33:20.284Z,9.93
2023-01-04T05:35:47.500Z,9.96
2023-01-04T05:38:15.004Z,10.02
2023-01-04T05:40:43.112Z,9.94
2023-01-04T05:43:10.317Z,10.07
2023-01-04T05:45:37.610Z,10.10
2023-01-04T05:48:05.132Z,10.14
2023-01-04T05:50:32.317Z,10.16
2023-01-04T05:53:04.689Z,10.19
2023-01-04T05:55:32.293Z,10.31
2023-01-04T05:57:59.657Z,10.31
2023-01-04T06:00:26.851Z,10.23
2023-01-04T06:02:55.565Z,10.22
2023-01-04T06:05:23.715Z,10.14
2023-01-04T06:07:50.926Z,10.13
2023-01-04T06:10:18.848Z,10.27
2023-01-04T06:12:46.257Z,10.26
2023-01-04T06:15:13.454Z,10.17
2023-01-04T06:17:40.968Z,9.84
2023-01-04T06:20:09.576Z,10.01
2023-01-04T06:22:36.999Z,10.09
2023-01-04T06:25:04.809Z,10.17
2023-01-04T06:27:32.009Z,10.18
2023-01-04T06:29:59.263Z,10.20
2023-01-04T06:32:26.752Z,10.11
2023-01-04T06:34:54.234Z,10.18
2023-01-04T06:37:21.437Z,10.24
2023-01-04T06:39:48.904Z,10.01
2023-01-04T06:42:34.885Z,10.08
2023-01-04T06:45:02.489Z,10.22
2023-01-04T06:47:29.726Z,10.44
2023-01-04T06:49:57.078Z,10.55
2023-01-04T06:52:24.643Z,10.91
2023-01-04T06:54:51.801Z,11.46
2023-01-04T06:57:19.005Z,12.22
2023-01-04T06:59:46.439Z,13.21
2023-01-04T07:02:14.245Z,14.23
2023-01-04T07:04:43.001Z,15.46
2023-01-04T07:07:10.607Z,16.27
2023-01-04T07:09:38.379Z,16.68
2023-01-04T07:12:05.813Z,17.30
2023-01-04T07:14:33.300Z,18.14
2023-01-04T07:17:00.436Z,18.45
2023-01-04T07:19:27.616Z,17.46
2023-01-04T07:21:55.859Z,16.50
2023-01-04T07:24:29.597Z,15.98
2023-01-04T07:26:59.432Z,15.84
2023-01-04T07:29:27.043Z,15.72
2023-01-04T07:31:54.356Z,15.41
2023-01-04T07:34:22.680Z,15.86
2023-01-04T07:36:50.135Z,16.19
2023-01-04T07:39:18.080Z,16.67
2023-01-04T07:41:45.711Z,16.88
2023-01-04T07:44:15.178Z,17.73
2023-01-04T07:46:43.089Z,17.97
2023-01-04T07:49:16.567Z,18.30
2023-01-04T07:51:45.185Z,19.70
2023-01-04T07:54:12.756Z,20.31
2023-01-04T07:56:40.055Z,19.68
2023-01-04T07:59:08.116Z,19.66
2023-01-04T08:01:37.928Z,19.66
2023-01-04T08:04:06.312Z,20.01
2023-01-04T08:06:33.609Z,19.70
2023-01-04T08:09:01.241Z,19.19
2023-01-04T08:11:28.695Z,18.82
2023-01-04T08:13:55.923Z,18.50
2023-01-04T08:16:32.995Z,18.51
2023-01-04T08:19:01.729Z,18.70
2023-01-04T08:21:29.534Z,18.29
2023-01-04T08:23:56.694Z,17.75
2023-01-04T08:26:24.325Z,18.44
2023-01-04T08:28:51.596Z,18.80
2023-01-04T08:31:20.491Z,18.77
2023-01-04T08:33:48.071Z,18.94
2023-01-04T08:36:26.216Z,19.11
2023-01-04T08:38:59.830Z,18.82
2023-01-04T08:44:16.959Z,18.66
2023-01-04T08:46:44.531Z,18.96
2023-01-04T08:49:11.800Z,19.01
2023-01-04T08:51:39.339Z,18.87
2023-01-04T08:54:06.586Z,19.73
2023-01-04T08:56:33.715Z,19.11
2023-01-04T08:59:01.345Z,18.54
2023-01-04T09:01:28.651Z,18.23
2023-01-04T09:03:56.249Z,18.44
2023-01-04T09:06:23.903Z,18.31
2023-01-04T09:08:51.103Z,17.99
2023-01-04T09:11:19.587Z,17.98
2023-01-04T09:13:47.218Z,19.80
2023-01-04T09:16:15.752Z,22.38
2023-01-04T09:18:43.491Z,22.79
2023-01-04T09:21:11.892Z,23.99
2023-01-04T09:23:39.355Z,23.40
2023-01-04T09:26:09.454Z,22.14
2023-01-04T09:28:37.541Z,21.89
2023-01-04T09:31:08.434Z,23.20
2023-01-04T09:34:03.973Z,24.42
2023-01-04T09:36:25.032Z,24.22
2023-01-04T09:38:52.397Z,23.77
2023-01-04T09:41:21.951Z,23.15
2023-01-04T09:43:49.385Z,22.50
2023-01-04T09:46:22.384Z,21.66
2023-01-04T09:48:49.968Z,21.51
2023-01-04T09:51:17.848Z,22.13
2023-01-04T09:53:50.083Z,23.69
2023-01-04T09:56:24.388Z,24.50
2023-01-04T09:58:51.774Z,24.46
2023-01-04T10:01:23.096Z,23.98
2023-01-04T10:04:07.899Z,24.66
2023-01-04T10:06:35.194Z,23.75
2023-01-04T10:09:03.718Z,23.12
2023-01-04T10:11:37.600Z,22.88
2023-01-04T10:14:17.477Z,23.56
2023-01-04T10:17:12.943Z,23.48
2023-01-04T10:22:51.379Z,24.15
2023-01-04T10:25:27.851Z,25.60
2023-01-04T10:27:55.230Z,26.53
2023-01-04T10:30:39.584Z,27.13
2023-01-04T10:33:06.755Z,28.02
2023-01-04T10:35:34.258Z,27.88
2023-01-04T10:38:03.491Z,27.84
2023-01-04T10:40:32.374Z,28.39
2023-01-04T10:43:01.735Z,28.55
2023-01-04T10:45:45.713Z,28.15
2023-01-04T10:48:19.064Z,28.23
2023-01-04T10:50:48.285Z,26.53
2023-01-04T10:53:15.732Z,25.10
2023-01-04T10:56:24.491Z,25.19
2023-01-04T10:58:35.255Z,26.13
2023-01-04T11:01:10.513Z,26.09
2023-01-04T11:03:38.723Z,25.97
2023-01-04T11:06:25.442Z,26.36
2023-01-04T11:08:59.782Z,27.35
2023-01-04T11:11:30.642Z,27.51
2023-01-04T11:14:00.151Z,26.82
2023-01-04T11:16:28.257Z,25.58
2023-01-04T11:18:55.473Z,25.93
2023-01-04T11:21:24.352Z,26.63
2023-01-04T11:23:51.633Z,26.94
2023-01-04T11:26:27.596Z,26.95
2023-01-04T11:28:55.916Z,26.56
2023-01-04T11:31:28.011Z,26.20
2023-01-04T11:33:59.641Z,25.63
2023-01-04T11:36:39.203Z,24.97
2023-01-04T11:39:26.918Z,24.59
2023-01-04T11:42:14.748Z,23.86
2023-01-04T11:44:42.207Z,22.86
2023-01-04T11:47:10.265Z,22.03
2023-01-04T11:49:37.449Z,21.01
2023-01-04T11:52:05.262Z,20.50
2023-01-04T11:54:32.524Z,19.71
2023-01-04T11:57:01.625Z,19.45
2023-01-04T11:59:31.186Z,19.25
2023-01-04T12:02:42.255Z,19.26
2023-01-04T12:05:06.520Z,18.87
2023-01-04T12:07:34.077Z,18.83
2023-01-04T12:10:02.392Z,18.53
2023-01-04T12:12:31.171Z,18.51
2023-01-04T12:15:00.598Z,18.29
2023-01-04T12:17:29.332Z,18.15
2023-01-04T12:19:57.299Z,17.99
2023-01-04T12:22:26.162Z,17.95
2023-01-04T12:25:00.312Z,17.78
2023-01-04T12:27:28.703Z,17.42
2023-01-04T12:29:59.875Z,17.53
2023-01-04T12:32:27.000Z,17.68
2023-01-04T12:34:54.890Z,17.72
2023-01-04T12:37:46.213Z,17.34
2023-01-04T12:40:32.168Z,17.39
2023-01-04T12:43:14.695Z,17.51
2023-01-04T12:45:45.688Z,17.15
2023-01-04T12:48:47.092Z,17.05
2023-01-04T12:51:37.219Z,17.06
2023-01-04T12:54:22.333Z,16.99
2023-01-04T12:57:08.356Z,16.87
2023-01-04T12:59:39.627Z,16.54
2023-01-04T13:02:21.072Z,16.03
2023-01-04T13:04:49.080Z,15.82
2023-01-04T13:07:18.734Z,15.50
2023-01-04T13:09:48.855Z,15.86
2023-01-04T13:12:20.473Z,15.75
2023-01-04T13:14:48.858Z,15.94
2023-01-04T13:17:17.780Z,15.43
2023-01-04T13:19:45.028Z,14.93
2023-01-04T13:22:23.419Z,14.88
2023-01-04T13:24:53.989Z,15.00
2023-01-04T13:27:22.189Z,15.13
2023-01-04T13:29:50.198Z,14.87
2023-01-04T13:32:20.343Z,14.96
2023-01-04T13:34:52.295Z,15.26
2023-01-04T13:37:39.782Z,14.71
2023-01-04T13:40:13.635Z,14.96
2023-01-04T13:42:42.397Z,14.91
2023-01-04T13:45:24.619Z,14.82
2023-01-04T13:47:52.347Z,13.79
2023-01-04T13:50:31.953Z,14.50
2023-01-04T13:53:07.079Z,13.76
2023-01-04T13:55:39.145Z,12.82
2023-01-04T13:58:07.459Z,12.01
2023-01-04T14:00:42.187Z,11.79
2023-01-04T14:03:10.415Z,13.12
2023-01-04T14:05:38.072Z,12.78
2023-01-04T14:08:11.637Z,12.82
2023-01-04T14:10:42.475Z,11.88
2023-01-04T14:13:14.321Z,11.37
2023-01-04T14:15:41.891Z,11.75
2023-01-04T14:18:25.946Z,11.21
2023-01-04T14:20:53.457Z,11.65
2023-01-04T14:23:27.532Z,10.69
2023-01-04T14:25:58.246Z,10.19
2023-01-04T14:28:28.341Z,11.30
2023-01-04T14:30:55.847Z,11.28
2023-01-04T14:33:29.300Z,11.09
2023-01-04T14:36:08.795Z,11.25
2023-01-04T14:38:36.594Z,11.10
2023-01-04T14:41:20.479Z,11.53
2023-01-04T14:43:49.089Z,10.84
2023-01-04T14:46:16.595Z,10.24
2023-01-04T14:48:43.795Z,10.81
2023-01-04T14:51:12.445Z,10.80
2023-01-04T14:53:39.997Z,10.41
2023-01-04T14:56:07.336Z,10.92
2023-01-04T14:58:34.723Z,11.54
2023-01-04T15:01:02.227Z,11.82
2023-01-04T15:03:29.642Z,11.66
2023-01-04T15:05:56.988Z,12.16
2023-01-04T15:08:24.431Z,11.99
2023-01-04T15:10:57.868Z,11.98
2023-01-04T15:13:27.485Z,11.92
2023-01-04T15:15:55.218Z,11.91
2023-01-04T15:18:22.743Z,12.29
2023-01-04T15:20:50.229Z,12.51
2023-01-04T15:23:17.519Z,12.59
2023-01-04T15:25:44.763Z,12.74
2023-01-04T15:28:12.522Z,12.79
2023-01-04T15:30:43.321Z,12.97
2023-01-04T15:33:10.828Z,13.12
2023-01-04T15:35:38.331Z,13.21
2023-01-04T15:38:06.820Z,13.24
2023-01-04T15:40:35.859Z,13.30
2023-01-04T15:43:03.412Z,13.35
2023-01-04T15:45:31.729Z,13.39
2023-01-04T15:48:03.211Z,13.39
2023-01-04T15:50:31.400Z,13.33
2023-01-04T15:52:58.655Z,13.36
2023-01-04T15:55:34.165Z,13.36
2023-01-04T15:58:04.435Z,13.34
2023-01-04T16:00:32.911Z,13.30
2023-01-04T16:03:00.621Z,13.15
2023-01-04T16:05:27.996Z,12.79
2023-01-04T16:07:55.199Z,12.98
2023-01-04T16:10:23.111Z,13.14
2023-01-04T16:12:56.757Z,13.21
2023-01-04T16:15:24.616Z,13.16
2023-01-04T16:17:51.801Z,12.77
2023-01-04T16:20:19.393Z,12.71
2023-01-04T16:22:46.921Z,12.94
2023-01-04T16:25:14.345Z,12.95
2023-01-04T16:27:41.737Z,13.03
2023-01-04T16:30:11.235Z,13.13
2023-01-04T16:32:40.589Z,13.14
2023-01-04T16:35:07.982Z,13.11
2023-01-04T16:37:35.643Z,13.16
2023-01-04T16:40:07.172Z,13.07
2023-01-04T16:42:35.888Z,12.98
2023-01-04T16:45:03.178Z,13.00
2023-01-04T16:47:35.689Z,12.88
2023-01-04T16:50:03.226Z,12.80
2023-01-04T16:52:30.518Z,12.78
2023-01-04T16:54:57.713Z,12.83
2023-01-04T16:57:25.197Z,12.66
2023-01-04T16:59:52.612Z,12.77
2023-01-04T17:02:20.163Z,12.60
2023-01-04T17:04:54.463Z,12.78
2023-01-04T17:07:21.764Z,12.57
2023-01-04T17:09:49.341Z,12.71
2023-01-04T17:12:46.228Z,12.63
2023-01-04T17:17:51.404Z,12.51
2023-01-04T17:20:19.033Z,12.49
2023-01-04T17:22:46.276Z,12.31
2023-01-04T17:25:15.077Z,12.21
2023-01-04T17:27:42.620Z,12.03
2023-01-04T17:30:10.122Z,12.07
2023-01-04T17:32:37.441Z,11.94
2023-01-04T17:35:05.262Z,11.50
2023-01-04T17:37:32.443Z,11.76
2023-01-04T17:39:59.614Z,11.65
2023-01-04T17:42:27.077Z,11.59
2023-01-04T17:44:54.283Z,11.62
2023-01-04T17:47:21.535Z,11.50
2023-01-04T17:49:49.109Z,11.32
2023-01-04T17:52:22.015Z,11.41
2023-01-04T17:54:52.296Z,11.51
2023-01-04T17:57:19.579Z,11.57
2023-01-04T17:59:46.815Z,11.51
2023-01-04T18:02:14.552Z,11.41
2023-01-04T18:04:42.240Z,11.23
2023-01-04T18:07:09.504Z,10.68
2023-01-04T18:09:36.887Z,10.88
2023-01-04T18:12:04.428Z,11.00
2023-01-04T18:14:31.707Z,11.00
2023-01-04T18:16:59.348Z,11.03
2023-01-04T18:19:30.466Z,10.81
2023-01-04T18:21:58.200Z,10.90
2023-01-04T18:24:41.729Z,10.96
2023-01-04T18:27:21.997Z,10.96
2023-01-04T18:29:50.526Z,10.93
2023-01-04T18:32:18.208Z,10.94
2023-01-04T18:34:45.387Z,10.96
2023-01-04T18:37:13.714Z,10.93
2023-01-04T18:39:41.508Z,11.00
2023-01-04T18:42:08.875Z,10.80
2023-01-04T18:44:37.833Z,10.90
2023-01-04T18:47:06.372Z,11.02
2023-01-04T18:49:33.555Z,11.12
2023-01-04T18:52:00.936Z,10.71
2023-01-04T18:54:28.532Z,11.10
2023-01-04T18:57:00.660Z,11.31
2023-01-04T18:59:29.633Z,11.14
2023-01-04T19:02:01.619Z,11.10
2023-01-04T19:04:30.629Z,11.34
2023-01-04T19:06:57.969Z,11.05
2023-01-04T19:09:25.221Z,10.96
2023-01-04T19:11:52.882Z,11.14
2023-01-04T19:14:20.325Z,11.41
2023-01-04T19:16:47.721Z,11.18
2023-01-04T19:19:15.475Z,11.23
2023-01-04T19:21:42.884Z,11.25
2023-01-04T19:24:10.423Z,10.50
2023-01-04T19:26:38.340Z,11.07
2023-01-04T19:29:07.394Z,10.59
2023-01-04T19:31:34.819Z,10.88
2023-01-04T19:34:02.455Z,11.30
2023-01-04T19:36:29.874Z,11.46
2023-01-04T19:38:57.304Z,11.68
2023-01-04T19:41:33.581Z,11.19
2023-01-04T19:44:05.500Z,11.68
2023-01-04T19:46:33.033Z,11.83
2023-01-04T19:49:00.375Z,11.42
2023-01-04T19:51:28.063Z,11.60
2023-01-04T19:53:55.812Z,11.79
2023-01-04T19:56:23.569Z,11.54
2023-01-04T19:58:50.745Z,11.73
2023-01-04T20:01:19.585Z,11.81
2023-01-04T20:03:47.491Z,11.84
2023-01-04T20:06:15.670Z,10.99
2023-01-04T20:08:43.212Z,10.40
2023-01-04T20:11:11.176Z,10.45
2023-01-04T20:13:38.850Z,10.57
2023-01-04T20:16:06.573Z,10.78
2023-01-04T20:18:34.525Z,10.58
2023-01-04T20:21:01.923Z,10.52
2023-01-04T20:23:29.267Z,11.09
2023-01-04T20:25:56.865Z,10.84
2023-01-04T20:28:24.424Z,11.10
2023-01-04T20:31:21.510Z,11.12
2023-01-04T20:33:49.038Z,11.25
2023-01-04T20:36:20.537Z,11.22
2023-01-04T20:38:48.184Z,11.45
2023-01-04T20:41:17.203Z,11.58
2023-01-04T20:43:45.023Z,11.86
2023-01-04T20:46:13.245Z,12.01
2023-01-04T20:48:41.522Z,12.04
2023-01-04T20:51:10.042Z,12.08
2023-01-04T20:53:37.452Z,12.03
2023-01-04T20:56:06.345Z,11.47
2023-01-04T20:58:33.562Z,11.91
2023-01-04T21:01:05.019Z,11.90
2023-01-04T21:03:33.131Z,11.62
2023-01-04T21:06:01.330Z,11.90
2023-01-04T21:08:29.061Z,11.89
2023-01-04T21:10:56.767Z,10.99
2023-01-04T21:13:24.459Z,11.22
2023-01-04T21:15:51.686Z,11.93
2023-01-04T21:18:19.322Z,12.07
2023-01-04T21:20:46.856Z,11.91
2023-01-04T21:23:18.162Z,12.20
2023-01-04T21:25:45.964Z,12.10
2023-01-04T21:28:13.876Z,10.87
2023-01-04T21:30:41.656Z,11.87
2023-01-04T21:33:09.759Z,11.80
2023-01-04T21:35:37.240Z,11.98
2023-01-04T21:38:04.961Z,11.86
2023-01-04T21:40:33.019Z,11.04
2023-01-04T21:43:00.391Z,11.42
2023-01-04T21:45:27.886Z,10.91
2023-01-04T21:47:55.398Z,11.15
2023-01-04T21:50:22.608Z,10.69
2023-01-04T21:52:49.822Z,11.14
2023-01-04T21:55:18.515Z,10.93
2023-01-04T21:57:45.745Z,10.62
2023-01-04T22:00:13.134Z,9.98
2023-01-04T22:02:41.060Z,10.25
2023-01-04T22:05:08.512Z,10.01
2023-01-04T22:07:35.731Z,9.77
2023-01-04T22:10:03.506Z,9.29
2023-01-04T22:12:30.693Z,9.22
2023-01-04T22:14:58.735Z,8.55
2023-01-04T22:17:26.329Z,8.78
2023-01-04T22:19:53.561Z,8.60
2023-01-04T22:22:20.738Z,8.54
2023-01-04T22:24:48.166Z,9.11
2023-01-04T22:27:15.348Z,9.31
2023-01-04T22:29:42.550Z,9.40
2023-01-04T22:32:10.032Z,9.00
2023-01-04T22:34:37.282Z,9.98
2023-01-04T22:37:04.434Z,10.39
2023-01-04T22:39:31.946Z,10.58
2023-01-04T22:41:59.184Z,10.55
2023-01-04T22:44:26.409Z,9.96
2023-01-04T22:46:53.924Z,10.61
2023-01-04T22:49:21.193Z,10.96
2023-01-04T22:51:48.361Z,11.60
2023-01-04T22:54:15.856Z,11.65
2023-01-04T22:56:43.872Z,11.71
2023-01-04T22:59:11.134Z,12.07
2023-01-04T23:01:38.613Z,11.96
2023-01-04T23:04:06.042Z,11.19
2023-01-04T23:06:33.457Z,11.66
2023-01-04T23:09:04.918Z,12.20
2023-01-04T23:11:32.846Z,12.42
2023-01-04T23:14:01.488Z,12.56
2023-01-04T23:16:32.752Z,12.43
2023-01-04T23:19:04.934Z,12.64
2023-01-04T23:21:32.608Z,12.65
2023-01-04T23:24:00.370Z,12.75
2023-01-04T23:26:28.288Z,12.75
2023-01-04T23:28:56.267Z,13.01
2023-01-04T23:31:24.024Z,13.17
2023-01-04T23:33:51.883Z,13.20
2023-01-04T23:36:20.560Z,13.15
2023-01-04T23:38:54.560Z,13.34
2023-01-04T23:41:42.288Z,13.37
2023-01-04T23:44:28.748Z,12.86
2023-01-04T23:46:56.174Z,12.31
2023-01-04T23:49:23.853Z,11.99
2023-01-04T23:51:51.332Z,12.59
2023-01-04T23:54:18.992Z,12.54
2023-01-04T23:56:46.249Z,12.13
2023-01-04T23:59:13.445Z,12.63
